Time;durP1;ratioP1;P1;durP2;ratioP2;P2;SDS_P1;SDS_P2;PMS_P1;PMS_P2;Temp;Humidity;BMP_temperature;BMP_pressure;BME280_temperature;BME280_humidity;BME280_pressure;Samples;Min_cycle;Max_cycle;Signal;HPM_P1;HPM_P2
2022/02/06 00:01:17;;;;;;;7.30;2.60;;;;;;;8.07;51.01;98298.38;8354030;28;20227;-67
2022/02/06 00:05:21;;;;;;;9.27;2.83;;;;;;;8.15;50.54;98291.28;8381659;28;20227;-67
2022/02/06 00:09:25;;;;;;;10.10;2.47;;;;;;;8.13;50.78;98285.31;8371920;28;20238;-67
2022/02/06 00:13:28;;;;;;;8.87;2.60;;;;;;;7.96;50.94;98282.41;8381630;28;20238;-67
2022/02/06 00:17:31;;;;;;;6.57;2.37;;;;;;;7.99;50.59;98272.81;8381228;28;20552;-69
2022/02/06 00:21:35;;;;;;;8.47;2.80;;;;;;;8.07;50.07;98267.44;8381286;28;20227;-68
2022/02/06 00:25:51;;;;;;;8.50;2.40;;;;;;;7.94;50.18;98250.63;8381282;28;20440;-67
2022/02/06 00:30:00;;;;;;;9.80;2.90;;;;;;;7.83;50.62;98246.63;8381350;28;20223;-68
2022/02/06 00:34:30;;;;;;;9.60;2.83;;;;;;;8.15;49.95;98238.84;8381204;28;20231;-68
2022/02/06 00:39:05;;;;;;;7.37;2.60;;;;;;;8.04;49.94;98234.00;8380658;28;20413;-68
2022/02/06 00:43:10;;;;;;;8.53;2.53;;;;;;;7.94;50.35;98225.69;8381048;28;20585;-68
2022/02/06 00:47:13;;;;;;;6.93;2.70;;;;;;;7.82;50.05;98202.84;8380915;28;20238;-68
2022/02/06 00:51:21;;;;;;;7.93;2.30;;;;;;;7.70;50.56;98201.47;8351193;28;20562;-68
2022/02/06 00:55:24;;;;;;;8.80;2.50;;;;;;;7.76;50.42;98200.44;8347733;28;20228;-68
2022/02/06 00:59:28;;;;;;;11.73;3.03;;;;;;;7.83;50.00;98195.06;8347722;28;20243;-68
2022/02/06 01:03:32;;;;;;;7.43;2.50;;;;;;;7.95;50.03;98190.44;8339589;28;20220;-69
2022/02/06 01:07:34;;;;;;;7.40;2.10;;;;;;;7.83;50.10;98183.91;8349226;28;20291;-68
2022/02/06 01:11:39;;;;;;;7.63;2.30;;;;;;;7.92;49.93;98191.38;8353725;28;20224;-68
2022/02/06 01:15:50;;;;;;;9.23;2.40;;;;;;;7.77;49.93;98186.69;8354214;28;20232;-68
2022/02/06 01:20:00;;;;;;;8.47;2.57;;;;;;;7.95;49.65;98187.84;8353605;28;20232;-68
2022/02/06 01:24:08;;;;;;;6.63;2.23;;;;;;;7.88;49.90;98182.06;8353845;28;20234;-68
2022/02/06 01:28:14;;;;;;;6.67;1.90;;;;;;;7.89;49.78;98170.84;8353587;28;20228;-68
2022/02/06 01:32:23;;;;;;;7.27;2.43;;;;;;;8.04;49.51;98166.94;8353475;28;20231;-68
2022/02/06 01:36:35;;;;;;;7.73;2.90;;;;;;;7.81;49.94;98158.16;8353564;28;20235;-68
2022/02/06 01:40:50;;;;;;;7.70;2.50;;;;;;;8.03;49.23;98157.50;8352857;28;20523;-69
2022/02/06 01:45:07;;;;;;;7.30;2.50;;;;;;;7.67;50.15;98154.31;8354848;28;20419;-70
2022/02/06 02:02:51;;;;;;;7.23;2.13;;;;;;;7.73;49.64;98138.66;8352413;28;20251;-69
2022/02/06 02:07:17;;;;;;;6.90;2.07;;;;;;;7.81;49.48;98116.09;8352113;28;20228;-69
2022/02/06 02:46:56;;;;;;;7.03;2.20;;;;;;;7.68;50.39;98045.16;8374829;28;20231;-68
2022/02/06 02:51:04;;;;;;;6.00;2.40;;;;;;;7.94;49.49;98032.28;8375050;28;20427;-68
2022/02/06 02:55:26;;;;;;;9.97;2.57;;;;;;;8.12;49.14;98015.34;8375419;28;20236;-68
2022/02/06 02:59:42;;;;;;;6.30;2.30;;;;;;;8.12;48.86;98019.66;8375240;28;20239;-68
2022/02/06 03:03:45;;;;;;;10.93;2.17;;;;;;;7.98;49.13;98002.91;8374675;28;20239;-68
2022/02/06 03:07:48;;;;;;;8.13;2.30;;;;;;;8.09;48.99;97999.13;8374495;28;20451;-68
2022/02/06 03:11:51;;;;;;;7.90;2.57;;;;;;;8.13;49.01;97987.81;8374441;28;20243;-68
2022/02/06 03:16:15;;;;;;;8.20;2.50;;;;;;;7.91;49.03;97982.56;8374359;28;20511;-68
2022/02/06 03:20:19;;;;;;;6.90;2.17;;;;;;;8.13;49.03;97988.69;8374166;28;20231;-68
2022/02/06 03:24:24;;;;;;;7.23;2.43;;;;;;;8.27;48.23;97982.19;8373698;28;20247;-68
2022/02/06 03:28:27;;;;;;;5.23;1.70;;;;;;;8.11;48.85;97980.16;8373892;28;20538;-67
2022/02/06 03:32:31;;;;;;;7.20;2.20;;;;;;;7.97;48.82;97975.44;8372454;28;20514;-68
2022/02/06 03:36:34;;;;;;;5.23;1.97;;;;;;;8.03;48.92;97970.09;8350822;28;20235;-68
2022/02/06 03:40:42;;;;;;;7.50;2.20;;;;;;;7.59;49.24;97959.50;8351612;28;20555;-68
2022/02/06 03:44:49;;;;;;;5.97;2.10;;;;;;;7.91;48.88;97949.88;8350947;28;20240;-68
2022/02/06 03:48:58;;;;;;;8.43;2.60;;;;;;;8.04;48.37;97958.03;8351265;28;20232;-68
2022/02/06 03:53:01;;;;;;;9.87;2.07;;;;;;;8.00;48.71;97946.97;8350806;28;20228;-68
2022/02/06 03:57:07;;;;;;;6.90;1.67;;;;;;;8.23;47.97;97953.06;8351546;28;20339;-68
2022/02/06 04:01:10;;;;;;;6.90;2.07;;;;;;;7.85;48.84;97938.94;8350641;28;20429;-68
2022/02/06 04:05:15;;;;;;;5.63;1.90;;;;;;;7.85;48.63;97937.19;8350724;28;20418;-68
2022/02/06 04:09:29;;;;;;;7.43;1.90;;;;;;;8.04;48.37;97939.97;8350361;28;20239;-67
2022/02/06 04:13:35;;;;;;;8.33;2.00;;;;;;;8.01;48.37;97943.50;8349907;28;20232;-68
2022/02/06 04:17:45;;;;;;;6.57;2.00;;;;;;;8.08;48.12;97931.22;8350634;28;20244;-68
2022/02/06 04:21:50;;;;;;;8.73;2.20;;;;;;;8.00;48.03;97931.50;8349982;28;20545;-67
2022/02/06 04:25:53;;;;;;;7.67;2.20;;;;;;;8.17;47.79;97930.91;8350017;28;20235;-67
2022/02/06 04:30:09;;;;;;;7.70;1.93;;;;;;;8.01;48.25;97929.75;8349836;28;20252;-67
2022/02/06 04:34:14;;;;;;;5.27;1.67;;;;;;;7.91;48.33;97916.34;8349450;28;20236;-67
2022/02/06 04:38:31;;;;;;;5.73;2.20;;;;;;;8.08;47.75;97913.19;8349262;28;20231;-67
2022/02/06 04:42:58;;;;;;;5.83;2.40;;;;;;;8.13;47.80;97897.53;8348698;28;20243;-68
2022/02/06 05:30:41;;;;;;;8.07;2.00;;;;;;;8.08;48.09;97832.38;8312472;28;20243;-67
2022/02/06 05:34:44;;;;;;;8.47;2.47;;;;;;;8.10;48.29;97818.53;8347482;28;20235;-67
2022/02/06 05:38:50;;;;;;;6.33;1.83;;;;;;;8.07;48.20;97817.78;8347489;28;20641;-67
2022/02/06 05:42:53;;;;;;;5.50;1.80;;;;;;;8.14;47.73;97825.25;8347008;28;20231;-67
2022/02/06 05:46:57;;;;;;;5.17;1.53;;;;;;;8.11;48.00;97824.53;8347381;28;20232;-67
2022/02/06 05:51:01;;;;;;;8.63;2.20;;;;;;;8.19;48.10;97843.16;8346967;28;20286;-67
2022/02/06 05:55:04;;;;;;;6.53;1.87;;;;;;;7.99;48.18;97821.50;8347147;28;20243;-67
2022/02/06 05:59:07;;;;;;;6.00;2.07;;;;;;;8.07;47.86;97812.63;8346737;28;20315;-67
2022/02/06 06:03:13;;;;;;;8.10;1.83;;;;;;;8.05;47.95;97817.00;8346826;28;20538;-67
2022/02/06 06:07:16;;;;;;;7.30;2.03;;;;;;;8.11;48.03;97816.78;8346896;28;20243;-67
2022/02/06 06:11:21;;;;;;;7.60;2.37;;;;;;;8.26;47.44;97818.78;8346779;28;20243;-67
2022/02/06 06:15:24;;;;;;;6.17;1.87;;;;;;;8.20;47.40;97811.28;8346697;28;20232;-67
2022/02/06 06:19:29;;;;;;;6.27;1.90;;;;;;;8.27;47.21;97819.66;8346827;28;20236;-67
2022/02/06 06:23:32;;;;;;;5.70;2.10;;;;;;;8.22;47.24;97815.50;8346156;28;20232;-68
2022/02/06 06:27:35;;;;;;;6.73;2.00;;;;;;;8.29;47.19;97810.94;8346774;28;20246;-68
2022/02/06 06:31:38;;;;;;;5.37;1.60;;;;;;;7.97;48.02;97807.81;8346439;28;20236;-67
2022/02/06 06:35:44;;;;;;;5.50;1.67;;;;;;;8.27;47.19;97802.44;8346477;28;20235;-68
2022/02/06 06:39:48;;;;;;;5.17;1.70;;;;;;;8.22;47.72;97815.50;8346393;28;20232;-67
2022/02/06 06:43:56;;;;;;;7.13;2.03;;;;;;;8.30;47.40;97817.81;8346456;28;20239;-67
2022/02/06 06:47:59;;;;;;;6.07;1.53;;;;;;;8.23;47.11;97813.75;8346265;28;20232;-67
2022/02/06 06:52:05;;;;;;;5.20;1.80;;;;;;;8.16;47.34;97802.81;8346104;28;20251;-67
2022/02/06 06:56:13;;;;;;;3.83;1.77;;;;;;;8.37;46.93;97790.00;8346421;28;20240;-67
2022/02/06 07:00:36;;;;;;;7.83;2.30;;;;;;;8.11;47.58;97793.56;8346079;28;20238;-69
2022/02/06 07:04:39;;;;;;;6.63;1.93;;;;;;;8.36;47.21;97786.59;8345724;28;20240;-67
2022/02/06 07:08:43;;;;;;;5.00;2.00;;;;;;;8.19;47.66;97776.91;8346861;28;20346;-68
2022/02/06 07:12:46;;;;;;;5.13;2.00;;;;;;;8.15;47.68;97775.34;8349414;28;20228;-68
2022/02/06 07:16:49;;;;;;;9.50;2.40;;;;;;;8.37;47.11;97779.69;8351703;28;20243;-67
2022/02/06 07:20:52;;;;;;;4.97;1.97;;;;;;;7.99;48.20;97775.06;8351549;28;20326;-67
2022/02/06 07:24:57;;;;;;;5.13;1.60;;;;;;;8.29;47.69;97764.50;8351737;28;20244;-67
2022/02/06 07:29:02;;;;;;;6.90;1.90;;;;;;;8.46;46.81;97757.91;8351903;28;20228;-68
2022/02/06 07:33:04;;;;;;;6.60;2.00;;;;;;;8.35;47.59;97759.09;8352150;28;20232;-67
2022/02/06 07:37:08;;;;;;;4.60;1.60;;;;;;;8.41;47.33;97755.44;8349662;28;20228;-66
2022/02/06 07:41:12;;;;;;;7.57;2.00;;;;;;;8.28;48.09;97754.25;8347564;28;20267;-67
2022/02/06 07:45:16;;;;;;;5.13;1.80;;;;;;;8.39;47.77;97759.84;8350264;28;20236;-67
2022/02/06 07:49:20;;;;;;;8.13;2.60;;;;;;;8.34;47.78;97736.78;8348063;28;20228;-68
2022/02/06 07:53:22;;;;;;;7.10;2.00;;;;;;;8.36;48.13;97731.59;8349234;28;20231;-67
2022/02/06 07:57:32;;;;;;;6.07;1.70;;;;;;;8.39;48.33;97716.78;8339748;28;20228;-67
2022/02/06 08:01:35;;;;;;;6.43;1.67;;;;;;;8.37;48.58;97703.13;8349916;28;20220;-65
2022/02/06 08:05:39;;;;;;;7.63;1.90;;;;;;;8.40;48.15;97697.84;8348952;28;20232;-65
2022/02/06 08:09:51;;;;;;;6.50;1.80;;;;;;;8.03;49.03;97693.28;8348587;28;20254;-65
2022/02/06 08:13:58;;;;;;;10.30;2.33;;;;;;;8.22;49.06;97698.56;8347608;28;20236;-65
2022/02/06 08:18:01;;;;;;;8.43;2.27;;;;;;;8.15;48.91;97697.97;8348347;28;20228;-65
2022/02/06 08:22:04;;;;;;;8.07;2.00;;;;;;;7.86;49.41;97672.44;8348511;28;20248;-66
2022/02/06 08:26:09;;;;;;;6.87;2.13;;;;;;;7.92;49.33;97672.22;8348603;28;20539;-66
2022/02/06 08:30:14;;;;;;;6.70;2.30;;;;;;;8.02;49.99;97663.25;8348409;28;20346;-66
2022/02/06 08:34:17;;;;;;;7.70;1.77;;;;;;;7.72;50.54;97658.34;8338750;28;20239;-66
2022/02/06 08:38:20;;;;;;;5.50;1.97;;;;;;;8.07;49.83;97640.66;8346506;28;20228;-66
2022/02/06 08:42:24;;;;;;;4.67;1.77;;;;;;;8.16;50.09;97631.75;8348818;28;20224;-66
2022/02/06 08:46:31;;;;;;;7.40;2.30;;;;;;;8.44;50.01;97638.41;8348536;28;20236;-65
2022/02/06 08:50:34;;;;;;;5.70;1.87;;;;;;;8.33;50.35;97638.81;8347863;28;20216;-65
2022/02/06 08:54:38;;;;;;;4.67;1.60;;;;;;;8.57;49.52;97624.09;8348483;28;20235;-66
2022/02/06 08:58:46;;;;;;;7.37;2.10;;;;;;;8.68;49.51;97623.63;8346192;28;20228;-63
2022/02/06 09:02:51;;;;;;;4.43;1.90;;;;;;;8.72;49.30;97636.38;8346745;28;20231;-64
2022/02/06 09:06:58;;;;;;;8.17;2.10;;;;;;;8.55;49.53;97613.84;8347396;28;20235;-64
2022/02/06 09:11:00;;;;;;;7.57;1.83;;;;;;;8.64;49.46;97607.44;8347042;28;20243;-64
2022/02/06 09:15:04;;;;;;;9.60;2.27;;;;;;;8.53;49.75;97605.31;8345721;28;21207;-63
2022/02/06 09:19:12;;;;;;;6.17;1.90;;;;;;;8.97;48.19;97600.00;8346170;28;20224;-64
2022/02/06 09:23:15;;;;;;;6.90;2.27;;;;;;;8.87;48.74;97603.88;8346437;28;20240;-65
2022/02/06 09:27:18;;;;;;;8.37;2.20;;;;;;;8.54;49.79;97604.41;8346566;28;20231;-64
2022/02/06 09:31:25;;;;;;;5.53;2.37;;;;;;;8.59;50.14;97599.88;8345924;28;20250;-64
2022/02/06 09:35:31;;;;;;;7.43;2.13;;;;;;;8.52;51.39;97605.38;8346647;28;20231;-64
2022/02/06 09:39:38;;;;;;;5.77;2.10;;;;;;;8.73;51.00;97581.22;8346361;28;20231;-63
2022/02/06 09:43:42;;;;;;;4.40;1.70;;;;;;;8.47;52.47;97573.75;8347099;28;20251;-64
2022/02/06 09:47:49;;;;;;;5.77;1.97;;;;;;;8.46;53.73;97572.91;8347245;28;20243;-64
2022/02/06 09:51:54;;;;;;;5.33;1.90;;;;;;;8.64;54.22;97558.38;8347272;28;20251;-64
2022/02/06 09:56:01;;;;;;;6.30;1.60;;;;;;;8.60;53.63;97549.97;8347513;28;20235;-64
2022/02/06 10:00:15;;;;;;;3.73;1.50;;;;;;;8.66;54.14;97528.19;8347224;28;20243;-64
2022/02/06 10:04:20;;;;;;;6.77;1.87;;;;;;;8.51;54.33;97521.09;8347360;28;20239;-64
2022/02/06 10:08:31;;;;;;;5.13;1.90;;;;;;;8.43;54.20;97523.19;8347408;28;20232;-64
2022/02/06 10:12:39;;;;;;;7.13;2.00;;;;;;;9.05;53.54;97500.66;8346836;28;20363;-64
2022/02/06 10:16:42;;;;;;;5.90;1.90;;;;;;;8.78;53.28;97501.00;8347243;28;20536;-64
2022/02/06 10:20:47;;;;;;;6.10;1.90;;;;;;;8.88;53.45;97479.03;8346560;28;20239;-64
2022/02/06 10:25:02;;;;;;;4.57;1.73;;;;;;;8.95;52.79;97470.09;8346362;28;20243;-64
2022/02/06 10:33:43;;;;;;;7.10;2.27;;;;;;;8.99;52.66;97457.88;8341720;28;20291;-64
2022/02/06 10:37:46;;;;;;;5.77;2.10;;;;;;;8.83;52.54;97441.41;8345924;28;20235;-64
2022/02/06 10:41:51;;;;;;;5.10;2.40;;;;;;;9.10;52.34;97434.13;8346507;28;20239;-64
2022/02/06 10:46:05;;;;;;;6.17;2.73;;;;;;;9.18;51.80;97427.69;8351328;28;20246;-63
2022/02/06 10:50:10;;;;;;;6.07;2.40;;;;;;;8.96;52.21;97411.53;8352650;28;20236;-64
2022/02/06 10:54:15;;;;;;;4.57;1.60;;;;;;;8.97;51.82;97387.38;8352578;28;20236;-63
2022/02/06 10:58:20;;;;;;;5.50;1.90;;;;;;;9.05;51.71;97395.59;8352864;28;20500;-64
2022/02/06 11:02:24;;;;;;;7.27;2.07;;;;;;;9.06;52.24;97399.00;8352388;28;20257;-64
2022/02/06 11:06:42;;;;;;;7.07;1.57;;;;;;;9.14;51.67;97374.50;8352500;28;20247;-63
2022/02/06 11:10:45;;;;;;;5.57;1.87;;;;;;;9.23;51.53;97368.03;8351841;28;20224;-63
2022/02/06 11:14:52;;;;;;;5.07;1.80;;;;;;;9.27;51.67;97350.66;8352201;28;20236;-64
2022/02/06 11:18:57;;;;;;;3.57;1.60;;;;;;;9.11;51.67;97340.22;8352472;28;20212;-64
2022/02/06 11:23:03;;;;;;;3.47;1.50;;;;;;;9.19;51.88;97338.09;8352376;28;20414;-64
2022/02/06 11:27:07;;;;;;;4.73;1.80;;;;;;;9.35;52.54;97330.44;8351764;28;20244;-64
2022/02/06 11:31:15;;;;;;;3.83;1.23;;;;;;;9.30;52.66;97324.66;8352116;28;20236;-63
2022/02/06 11:35:23;;;;;;;4.73;1.70;;;;;;;9.35;53.12;97315.78;8351979;28;20236;-63
2022/02/06 11:44:33;;;;;;;4.07;1.40;;;;;;;9.12;53.37;97280.75;8350813;28;20415;-63
2022/02/06 11:48:39;;;;;;;4.40;1.50;;;;;;;9.00;53.82;97287.34;8348732;28;20342;-64
2022/02/06 11:52:49;;;;;;;2.83;1.20;;;;;;;9.26;54.32;97266.31;8350628;28;20234;-63
2022/02/06 11:57:20;;;;;;;5.73;1.50;;;;;;;9.33;53.42;97239.25;8349746;28;20255;-63
2022/02/06 12:01:24;;;;;;;4.87;1.63;;;;;;;8.91;54.09;97238.75;8348740;28;20231;-63
2022/02/06 12:05:30;;;;;;;6.17;2.70;;;;;;;9.19;53.51;97229.59;8350471;28;20236;-64
2022/02/06 12:09:33;;;;;;;4.10;1.60;;;;;;;9.39;53.82;97213.09;8349551;28;20216;-64
2022/02/06 12:13:37;;;;;;;3.87;1.23;;;;;;;9.13;53.95;97179.06;8349626;28;20231;-65
2022/02/06 12:18:05;;;;;;;1.80;1.17;;;;;;;9.14;53.28;97195.44;8348824;28;20224;-66
2022/02/06 12:22:39;;;;;;;3.27;1.07;;;;;;;9.00;54.00;97163.38;8348044;28;20239;-64
2022/02/06 12:26:45;;;;;;;3.33;1.63;;;;;;;9.07;54.32;97160.50;8348346;28;20230;-64
2022/02/06 12:30:49;;;;;;;3.93;1.40;;;;;;;8.91;54.81;97138.03;8348071;28;20224;-65
2022/02/06 12:39:15;;;;;;;3.50;1.40;;;;;;;8.80;55.04;97133.41;8348423;28;20243;-64
2022/02/06 12:43:21;;;;;;;2.07;1.00;;;;;;;9.23;54.55;97116.59;8346590;28;20420;-64
2022/02/06 12:47:24;;;;;;;3.67;1.10;;;;;;;9.20;54.99;97108.09;8347958;28;20265;-64
2022/02/06 12:51:28;;;;;;;3.47;1.00;;;;;;;9.06;55.69;97104.56;8348020;28;20414;-64
2022/02/06 12:55:37;;;;;;;2.63;1.10;;;;;;;9.16;55.19;97091.09;8347788;28;20221;-64
2022/02/06 12:59:39;;;;;;;3.53;1.20;;;;;;;9.09;55.62;97084.59;8346179;28;20235;-64
2022/02/06 13:03:43;;;;;;;2.03;1.00;;;;;;;9.15;55.04;97071.34;8348127;28;20228;-64
2022/02/06 13:07:46;;;;;;;3.00;1.17;;;;;;;9.20;55.52;97058.19;8346736;28;20228;-63
2022/02/06 13:11:59;;;;;;;3.90;1.23;;;;;;;9.33;55.33;97046.28;8347733;28;20228;-63
2022/02/06 13:16:15;;;;;;;2.63;1.00;;;;;;;9.05;55.76;97030.59;8346203;28;20224;-64
2022/02/06 13:20:31;;;;;;;1.97;0.93;;;;;;;8.96;55.96;97026.75;8347825;28;20224;-64
2022/02/06 13:24:47;;;;;;;2.90;1.03;;;;;;;8.99;56.78;97008.50;8347076;28;20259;-64
2022/02/06 13:28:59;;;;;;;1.90;1.00;;;;;;;8.97;57.01;97000.03;8345805;28;20242;-64
2022/02/06 13:33:10;;;;;;;3.57;1.10;;;;;;;8.60;58.27;96981.28;8348019;28;20409;-64
2022/02/06 13:37:24;;;;;;;2.57;1.10;;;;;;;8.82;57.90;96981.00;8347029;28;20323;-64
2022/02/06 13:41:31;;;;;;;2.40;1.17;;;;;;;8.86;58.25;96963.59;8347544;28;20232;-64
2022/02/06 13:45:37;;;;;;;2.47;1.00;;;;;;;8.69;59.09;96959.34;8346994;28;20577;-64
2022/02/06 13:49:45;;;;;;;2.67;1.10;;;;;;;8.71;59.16;96960.09;8344040;28;20228;-63
2022/02/06 13:53:54;;;;;;;4.13;1.40;;;;;;;8.60;59.74;96938.28;8345937;28;20232;-64
2022/02/06 13:57:57;;;;;;;1.80;1.07;;;;;;;8.68;60.03;96916.34;8346436;28;20232;-63
2022/02/06 14:02:07;;;;;;;2.90;1.23;;;;;;;8.64;60.17;96918.25;8346340;28;20232;-64
2022/02/06 14:06:11;;;;;;;4.50;0.90;;;;;;;8.31;60.89;96907.94;8345892;28;20232;-64
2022/02/06 14:10:17;;;;;;;2.53;0.80;;;;;;;8.40;61.22;96892.00;8343795;28;20235;-64
2022/02/06 14:14:22;;;;;;;2.17;1.10;;;;;;;8.57;61.13;96891.97;8346121;28;20224;-64
2022/02/06 14:18:27;;;;;;;2.80;1.00;;;;;;;8.38;61.45;96858.53;8345849;28;20235;-64
2022/02/06 14:22:32;;;;;;;3.97;1.00;;;;;;;8.28;61.98;96864.25;8345838;28;20228;-64
2022/02/06 14:26:36;;;;;;;1.87;0.77;;;;;;;7.99;62.46;96851.97;8343156;28;20311;-64
2022/02/06 14:30:39;;;;;;;2.00;0.90;;;;;;;8.05;62.96;96845.66;8345565;28;20235;-64
2022/02/06 14:34:58;;;;;;;3.03;1.57;;;;;;;8.35;62.29;96825.16;8345505;28;20224;-64
2022/02/06 14:39:02;;;;;;;1.97;1.20;;;;;;;8.40;62.82;96817.19;8344064;28;20228;-64
2022/02/06 14:43:14;;;;;;;1.50;0.90;;;;;;;8.42;62.32;96812.81;8345988;28;20231;-64
2022/02/06 14:47:17;;;;;;;1.77;0.80;;;;;;;8.26;62.69;96806.75;8345627;28;20232;-65
2022/02/06 14:51:22;;;;;;;1.90;0.70;;;;;;;8.15;62.65;96795.28;8345531;28;20224;-64
2022/02/06 14:55:25;;;;;;;1.63;0.80;;;;;;;8.37;62.35;96781.22;8345669;28;20228;-64
2022/02/06 14:59:33;;;;;;;2.03;0.63;;;;;;;8.36;62.48;96764.09;8345094;28;20220;-64
2022/02/06 15:03:37;;;;;;;1.83;0.90;;;;;;;8.25;62.56;96767.25;8342125;28;20541;-65
2022/02/06 15:07:42;;;;;;;0.83;0.60;;;;;;;8.18;62.33;96758.16;8345654;28;20224;-64
2022/02/06 15:11:45;;;;;;;2.23;0.87;;;;;;;8.09;62.92;96761.25;8345199;28;20224;-64
2022/02/06 15:15:50;;;;;;;1.37;1.00;;;;;;;7.98;63.36;96767.81;8345211;28;20254;-64
2022/02/06 15:19:54;;;;;;;1.47;0.70;;;;;;;7.94;63.67;96743.13;8345219;28;20243;-64
2022/02/06 15:23:58;;;;;;;0.80;0.80;;;;;;;8.09;62.52;96735.44;8345460;28;20236;-63
2022/02/06 15:28:01;;;;;;;0.60;0.57;;;;;;;7.94;63.39;96729.38;8345794;28;20232;-64
2022/02/06 15:32:04;;;;;;;0.73;0.53;;;;;;;7.98;63.01;96708.50;8351081;28;20240;-63
2022/02/06 15:36:08;;;;;;;1.93;0.80;;;;;;;8.12;63.10;96714.66;8351682;28;20243;-64
2022/02/06 15:40:16;;;;;;;1.33;0.63;;;;;;;8.04;62.52;96715.09;8351388;28;20236;-64
2022/02/06 15:44:19;;;;;;;0.87;0.60;;;;;;;8.01;62.94;96713.50;8351488;28;20404;-64
2022/02/06 15:48:23;;;;;;;0.93;0.80;;;;;;;8.21;62.73;96716.75;8351371;28;20232;-64
2022/02/06 15:52:26;;;;;;;0.97;0.50;;;;;;;7.99;62.57;96712.75;8351425;28;20235;-64
2022/02/06 15:56:30;;;;;;;1.90;0.63;;;;;;;7.68;63.40;96703.25;8351045;28;20426;-63
2022/02/06 16:00:33;;;;;;;1.23;0.80;;;;;;;7.85;63.03;96691.22;8350539;28;20224;-64
2022/02/06 16:04:36;;;;;;;1.33;0.87;;;;;;;7.82;63.28;96682.75;8351092;28;20236;-64
2022/02/06 16:08:39;;;;;;;1.30;0.90;;;;;;;7.96;63.55;96700.03;8350726;28;20236;-63
2022/02/06 16:12:44;;;;;;;1.03;0.70;;;;;;;8.10;62.78;96695.88;8350633;28;20232;-64
2022/02/06 16:16:47;;;;;;;0.50;0.50;;;;;;;8.11;62.60;96689.78;8350821;28;20430;-63
2022/02/06 16:20:52;;;;;;;2.23;0.70;;;;;;;7.94;62.87;96680.38;8350861;28;20391;-64
2022/02/06 16:24:55;;;;;;;0.43;0.37;;;;;;;7.94;63.23;96686.41;8350109;28;20299;-63
2022/02/06 16:28:59;;;;;;;0.43;0.43;;;;;;;7.95;63.05;96666.59;8350259;28;20346;-64
2022/02/06 16:33:02;;;;;;;1.00;0.93;;;;;;;7.88;63.18;96663.53;8350187;28;20232;-63
2022/02/06 16:37:05;;;;;;;2.03;0.50;;;;;;;7.94;62.43;96659.75;8349791;28;20370;-63
2022/02/06 16:41:08;;;;;;;0.33;0.33;;;;;;;7.90;63.18;96659.13;8349447;28;20243;-63
2022/02/06 16:45:16;;;;;;;1.50;0.70;;;;;;;7.94;62.77;96662.34;8346905;28;20418;-63
2022/02/06 16:49:19;;;;;;;0.40;0.40;;;;;;;7.87;62.92;96655.88;8348906;28;20434;-63
2022/02/06 16:53:22;;;;;;;1.17;0.67;;;;;;;7.76;63.14;96654.69;8349203;28;20232;-63
2022/02/06 16:57:25;;;;;;;0.90;0.53;;;;;;;7.81;62.64;96652.72;8349138;28;20236;-65
2022/02/06 17:01:30;;;;;;;0.60;0.50;;;;;;;7.98;62.15;96648.41;8349113;28;20408;-63
2022/02/06 17:05:33;;;;;;;1.23;0.63;;;;;;;8.00;61.88;96623.34;8348303;28;20223;-64
2022/02/06 17:09:37;;;;;;;0.43;0.40;;;;;;;8.08;62.15;96653.88;8347909;28;20228;-64
2022/02/06 17:13:40;;;;;;;0.53;0.53;;;;;;;8.03;61.84;96649.81;8348740;28;20220;-63
2022/02/06 17:17:45;;;;;;;0.77;0.50;;;;;;;7.94;61.56;96629.69;8347657;28;20242;-63
2022/02/06 17:21:48;;;;;;;0.47;0.43;;;;;;;7.97;62.04;96629.50;8348463;28;20306;-63
2022/02/06 17:25:51;;;;;;;1.13;0.70;;;;;;;7.79;62.46;96631.34;8348701;28;20244;-63
2022/02/06 17:29:54;;;;;;;0.50;0.50;;;;;;;8.00;62.29;96637.06;8347876;28;20235;-63
2022/02/06 17:33:59;;;;;;;0.87;0.40;;;;;;;7.81;62.17;96636.44;8347990;28;20239;-63
2022/02/06 17:38:02;;;;;;;0.77;0.60;;;;;;;7.95;62.65;96639.06;8347943;28;20228;-63
2022/02/06 17:42:06;;;;;;;0.80;0.40;;;;;;;7.96;62.48;96622.69;8348129;28;20251;-63
2022/02/06 17:46:09;;;;;;;0.73;0.43;;;;;;;8.22;62.05;96636.72;8347317;28;20236;-63
2022/02/06 17:50:15;;;;;;;0.40;0.30;;;;;;;8.07;62.58;96636.72;8347585;28;20232;-63
2022/02/06 17:54:18;;;;;;;1.43;0.60;;;;;;;8.25;63.10;96637.47;8347020;28;20295;-63
2022/02/06 17:58:22;;;;;;;0.77;0.50;;;;;;;8.21;63.06;96631.66;8347504;28;20235;-63
2022/02/06 18:02:25;;;;;;;0.40;0.40;;;;;;;8.33;62.97;96653.34;8347854;28;20527;-64
2022/02/06 18:06:29;;;;;;;1.17;0.63;;;;;;;8.32;62.71;96651.66;8346906;28;20234;-64
2022/02/06 18:10:32;;;;;;;0.40;0.40;;;;;;;8.37;62.38;96659.97;8346088;28;20220;-63
2022/02/06 18:14:36;;;;;;;0.63;0.50;;;;;;;8.43;62.42;96664.00;8346323;28;20236;-63
2022/02/06 18:18:38;;;;;;;1.03;0.50;;;;;;;8.54;62.32;96657.28;8346898;28;20239;-63
2022/02/06 18:22:43;;;;;;;0.67;0.60;;;;;;;8.43;62.70;96664.00;8345863;28;20527;-63
2022/02/06 18:26:46;;;;;;;1.20;0.70;;;;;;;8.33;63.88;96651.56;8340653;28;20240;-63
2022/02/06 18:30:51;;;;;;;0.93;0.80;;;;;;;8.52;63.39;96648.00;8344817;28;20224;-63
2022/02/06 18:34:54;;;;;;;0.40;0.40;;;;;;;8.35;64.15;96638.59;8346179;28;20231;-63
2022/02/06 18:38:58;;;;;;;1.43;0.70;;;;;;;8.45;63.51;96637.19;8345617;28;20239;-63
2022/02/06 18:43:02;;;;;;;1.33;0.40;;;;;;;8.52;63.24;96637.66;8346087;28;20250;-63
2022/02/06 18:47:07;;;;;;;0.60;0.57;;;;;;;8.47;63.53;96639.69;8346646;28;20236;-63
2022/02/06 18:51:14;;;;;;;2.90;0.80;;;;;;;8.61;63.38;96621.66;8346895;28;20240;-63
2022/02/06 18:55:18;;;;;;;1.33;0.60;;;;;;;8.09;64.57;96628.00;8347191;28;20239;-63
2022/02/06 18:59:27;;;;;;;0.83;0.70;;;;;;;8.40;64.02;96634.03;8347109;28;20431;-63
2022/02/06 19:03:30;;;;;;;48.70;10.67;;;;;;;10.73;71.58;96637.00;8347174;28;20239;-65
2022/02/06 19:07:33;;;;;;;12.37;2.47;;;;;;;10.96;63.35;96625.13;8352692;28;20247;-65
2022/02/06 19:11:37;;;;;;;0.73;0.60;;;;;;;9.55;61.33;96618.66;8352912;28;20228;-65
2022/02/06 19:15:40;;;;;;;3.50;0.70;;;;;;;9.24;62.52;96606.78;8352037;28;20232;-64
2022/02/06 19:19:43;;;;;;;1.90;1.10;;;;;;;8.67;63.97;96599.84;8352278;28;20424;-64
2022/02/06 19:23:46;;;;;;;1.80;1.47;;;;;;;8.86;63.68;96608.16;8353030;28;20407;-63
2022/02/06 19:27:52;;;;;;;1.23;0.60;;;;;;;8.72;63.73;96611.56;8352570;28;20236;-63
2022/02/06 19:31:56;;;;;;;1.20;0.77;;;;;;;8.86;63.34;96603.00;8349665;28;20228;-64
2022/02/06 19:36:04;;;;;;;1.80;0.60;;;;;;;8.67;64.31;96613.56;8351802;28;20228;-63
2022/02/06 19:40:08;;;;;;;1.07;0.70;;;;;;;8.78;63.28;96600.03;8349671;28;20566;-63
2022/02/06 19:44:13;;;;;;;0.90;0.50;;;;;;;8.56;64.15;96605.59;8351293;28;20231;-63
2022/02/06 19:48:16;;;;;;;1.27;0.53;;;;;;;8.11;64.76;96618.44;8350928;28;20239;-63
2022/02/06 19:52:19;;;;;;;0.80;0.60;;;;;;;8.19;64.29;96616.25;8348460;28;20223;-63
2022/02/06 19:56:23;;;;;;;0.90;0.70;;;;;;;8.17;64.00;96609.53;8350705;28;20235;-64
2022/02/06 20:00:27;;;;;;;1.23;0.77;;;;;;;8.40;63.58;96605.63;8350667;28;20224;-63
2022/02/06 20:04:30;;;;;;;1.50;0.63;;;;;;;7.98;63.97;96600.22;8350841;28;20523;-63
2022/02/06 20:08:34;;;;;;;1.13;0.50;;;;;;;7.90;64.66;96599.84;8350060;28;20224;-63
2022/02/06 20:12:39;;;;;;;0.70;0.57;;;;;;;8.08;63.67;96589.41;8350455;28;20228;-64
2022/02/06 20:16:44;;;;;;;1.07;0.50;;;;;;;8.33;63.12;96581.94;8347886;28;20231;-64
2022/02/06 20:20:47;;;;;;;1.70;0.97;;;;;;;8.41;62.76;96578.91;8350345;28;20232;-63
2022/02/06 20:24:50;;;;;;;0.83;0.70;;;;;;;8.48;62.34;96563.94;8349766;28;20235;-63
2022/02/06 20:28:54;;;;;;;0.97;0.73;;;;;;;8.36;62.29;96553.38;8349865;28;20243;-63
2022/02/06 20:33:03;;;;;;;1.33;0.90;;;;;;;8.19;62.07;96538.06;8349839;28;20250;-63
2022/02/06 20:37:06;;;;;;;2.40;1.00;;;;;;;8.26;61.40;96533.38;8348079;28;20232;-63
2022/02/06 20:41:09;;;;;;;1.03;1.00;;;;;;;8.37;61.05;96525.84;8349605;28;20392;-64
2022/02/06 20:45:12;;;;;;;2.10;1.57;;;;;;;8.40;60.44;96499.88;8349237;28;20232;-63
2022/02/06 20:49:17;;;;;;;1.60;1.50;;;;;;;8.34;60.48;96508.81;8349234;28;20236;-63
2022/02/06 20:53:20;;;;;;;1.97;1.60;;;;;;;8.18;60.31;96502.88;8349356;28;20224;-64
2022/02/06 20:57:23;;;;;;;2.57;1.90;;;;;;;8.31;59.93;96488.34;8349297;28;20224;-64
2022/02/06 21:01:27;;;;;;;2.97;1.83;;;;;;;8.46;59.57;96467.75;8348924;28;20423;-63
2022/02/06 21:05:37;;;;;;;2.47;1.80;;;;;;;8.39;59.81;96498.19;8348584;28;20519;-63
2022/02/06 21:09:40;;;;;;;3.80;2.60;;;;;;;8.03;61.50;96489.97;8346175;28;20228;-63
2022/02/06 21:13:43;;;;;;;1.30;1.00;;;;;;;7.90;61.26;96472.69;8349658;28;20239;-63
2022/02/06 21:17:46;;;;;;;1.17;0.83;;;;;;;7.76;61.20;96473.47;8349066;28;20232;-63